createdAt,value
2023-01-29T00:01:48.186Z,-0.50
2023-01-29T00:04:14.892Z,-0.50
2023-01-29T00:06:41.694Z,-0.60
2023-01-29T00:09:08.454Z,-0.70
2023-01-29T00:11:35.382Z,-0.60
2023-01-29T00:14:02.127Z,-0.60
2023-01-29T00:16:28.904Z,-0.70
2023-01-29T00:18:55.607Z,-0.70
2023-01-29T00:21:22.446Z,-0.80
2023-01-29T00:23:49.591Z,-0.90
2023-01-29T00:26:16.761Z,-0.90
2023-01-29T00:28:44.022Z,-0.90
2023-01-29T00:31:15.382Z,-1.00
2023-01-29T00:33:42.338Z,-1.10
2023-01-29T00:36:11.127Z,-1.20
2023-01-29T00:38:37.959Z,-1.20
2023-01-29T00:41:33.325Z,-1.30
2023-01-29T00:44:18.990Z,-1.50
2023-01-29T00:46:46.208Z,-1.70
2023-01-29T00:49:13.084Z,-1.80
2023-01-29T00:51:40.043Z,-1.80
2023-01-29T00:54:06.918Z,-1.80
2023-01-29T00:56:35.089Z,-1.70
2023-01-29T00:59:01.823Z,-1.80
2023-01-29T01:01:46.840Z,-1.80
2023-01-29T01:04:13.619Z,-1.90
2023-01-29T01:06:41.249Z,-2.10
2023-01-29T01:09:27.083Z,-2.20
2023-01-29T01:11:53.832Z,-2.20
2023-01-29T01:14:20.549Z,-2.30
2023-01-29T01:16:47.757Z,-2.30
2023-01-29T01:19:15.327Z,-2.30
2023-01-29T01:21:45.477Z,-2.20
2023-01-29T01:24:12.894Z,-2.20
2023-01-29T01:26:39.687Z,-2.10
2023-01-29T01:29:06.566Z,-2.10
2023-01-29T01:31:33.375Z,-2.10
2023-01-29T01:34:00.186Z,-2.10
2023-01-29T01:36:26.910Z,-2.10
2023-01-29T01:38:54.407Z,-2.10
2023-01-29T01:41:21.931Z,-2.20
2023-01-29T01:43:58.720Z,-2.30
2023-01-29T01:46:28.392Z,-2.40
2023-01-29T01:49:02.055Z,-2.60
2023-01-29T01:51:29.541Z,-2.70
2023-01-29T01:54:10.894Z,-2.80
2023-01-29T01:56:40.955Z,-2.80
2023-01-29T01:59:12.237Z,-2.80
2023-01-29T02:01:42.752Z,-2.90
2023-01-29T02:04:33.505Z,-2.90
2023-01-29T02:07:19.630Z,-2.90
2023-01-29T02:09:52.598Z,-2.90
2023-01-29T02:12:19.665Z,-2.90
2023-01-29T02:14:46.494Z,-2.90
2023-01-29T02:17:14.542Z,-3.00
2023-01-29T02:20:07.624Z,-3.00
2023-01-29T02:22:59.364Z,-2.90
2023-01-29T02:25:50.705Z,-2.90
2023-01-29T02:28:37.206Z,-2.90
2023-01-29T02:31:17.506Z,-2.90
2023-01-29T02:34:02.709Z,-2.90
2023-01-29T02:37:13.492Z,-2.80
2023-01-29T02:39:45.829Z,-2.90
2023-01-29T02:42:28.633Z,-2.90
2023-01-29T02:45:12.757Z,-3.00
2023-01-29T02:47:55.530Z,-2.90
2023-01-29T02:50:37.557Z,-2.90
2023-01-29T02:53:11.040Z,-2.80
2023-01-29T02:55:46.282Z,-2.80
2023-01-29T02:58:20.801Z,-2.80
2023-01-29T03:00:48.198Z,-2.80
2023-01-29T03:03:28.371Z,-2.90
2023-01-29T03:06:06.889Z,-3.00
2023-01-29T03:08:45.504Z,-3.00
2023-01-29T03:11:15.989Z,-3.10
2023-01-29T03:13:56.248Z,-3.20
2023-01-29T03:16:25.856Z,-3.20
2023-01-29T03:18:57.042Z,-3.20
2023-01-29T03:21:56.330Z,-3.10
2023-01-29T03:24:53.926Z,-3.10
2023-01-29T03:27:39.978Z,-3.20
2023-01-29T03:30:25.721Z,-3.20
2023-01-29T03:32:52.586Z,-3.30
2023-01-29T03:35:33.403Z,-3.30
2023-01-29T03:38:00.435Z,-3.20
2023-01-29T03:40:27.923Z,-3.20
2023-01-29T03:43:03.522Z,-3.30
2023-01-29T03:45:43.193Z,-3.30
2023-01-29T03:48:17.016Z,-3.20
2023-01-29T03:51:21.235Z,-3.20
2023-01-29T03:53:53.990Z,-3.20
2023-01-29T03:56:45.511Z,-3.20
2023-01-29T03:59:33.131Z,-3.20
2023-01-29T04:02:01.354Z,-3.20
2023-01-29T04:04:30.176Z,-3.10
2023-01-29T04:06:58.416Z,-3.00
2023-01-29T04:09:34.368Z,-3.00
2023-01-29T04:12:22.309Z,-2.90
2023-01-29T04:14:49.155Z,-2.90
2023-01-29T04:17:24.068Z,-2.90
2023-01-29T04:19:50.979Z,-2.80
2023-01-29T04:22:23.245Z,-2.70
2023-01-29T04:24:49.962Z,-2.70
2023-01-29T04:27:50.575Z,-2.60
2023-01-29T04:30:30.821Z,-2.50
2023-01-29T04:32:58.896Z,-2.50
2023-01-29T04:35:32.755Z,-2.50
2023-01-29T04:38:29.038Z,-2.40
2023-01-29T04:41:16.961Z,-2.30
2023-01-29T04:43:59.125Z,-2.40
2023-01-29T04:46:35.975Z,-2.40
2023-01-29T04:49:06.831Z,-2.40
2023-01-29T04:51:55.847Z,-2.40
2023-01-29T04:54:34.563Z,-2.40
2023-01-29T04:57:26.061Z,-2.40
2023-01-29T05:00:30.889Z,-2.40
2023-01-29T05:02:57.870Z,-2.40
2023-01-29T05:05:24.657Z,-2.40
2023-01-29T05:07:51.502Z,-2.40
2023-01-29T05:10:19.682Z,-2.40
2023-01-29T05:12:49.705Z,-2.40
2023-01-29T05:15:23.328Z,-2.30
2023-01-29T05:17:50.083Z,-2.40
2023-01-29T05:20:17.491Z,-2.30
2023-01-29T05:22:44.503Z,-2.30
2023-01-29T05:25:23.428Z,-2.30
2023-01-29T05:28:07.309Z,-2.40
2023-01-29T05:30:36.265Z,-2.40
2023-01-29T05:33:03.351Z,-2.30
2023-01-29T05:35:30.283Z,-2.40
2023-01-29T05:37:57.132Z,-2.30
2023-01-29T05:40:24.596Z,-2.30
2023-01-29T05:42:51.346Z,-2.30
2023-01-29T05:45:18.797Z,-2.30
2023-01-29T05:47:46.075Z,-2.30
2023-01-29T05:50:13.320Z,-2.30
2023-01-29T05:52:40.324Z,-2.30
2023-01-29T05:55:08.615Z,-2.30
2023-01-29T05:57:35.391Z,-2.30
2023-01-29T06:00:02.229Z,-2.40
2023-01-29T06:02:32.103Z,-2.40
2023-01-29T06:04:58.932Z,-2.40
2023-01-29T06:07:25.760Z,-2.50
2023-01-29T06:09:52.492Z,-2.50
2023-01-29T06:12:19.325Z,-2.50
2023-01-29T06:14:46.090Z,-2.70
2023-01-29T06:17:12.812Z,-2.90
2023-01-29T06:19:39.642Z,-3.00
2023-01-29T06:22:06.442Z,-3.00
2023-01-29T06:24:33.138Z,-3.20
2023-01-29T06:26:59.893Z,-3.30
2023-01-29T06:29:26.641Z,-3.40
2023-01-29T06:31:53.501Z,-3.50
2023-01-29T06:34:20.329Z,-3.60
2023-01-29T06:36:47.063Z,-3.70
2023-01-29T06:39:13.860Z,-3.70
2023-01-29T06:41:40.679Z,-3.70
2023-01-29T06:44:07.654Z,-3.80
2023-01-29T06:46:34.748Z,-3.70
2023-01-29T06:49:01.589Z,-3.90
2023-01-29T06:51:28.406Z,-4.10
2023-01-29T06:53:56.177Z,-4.30
2023-01-29T06:56:23.486Z,-4.40
2023-01-29T06:58:50.292Z,-4.50
2023-01-29T07:01:33.383Z,-4.50
2023-01-29T07:04:01.317Z,-4.50
2023-01-29T07:06:31.399Z,-4.50
2023-01-29T07:08:58.219Z,-4.50
2023-01-29T07:11:25.051Z,-4.70
2023-01-29T07:13:51.791Z,-4.80
2023-01-29T07:16:19.303Z,-4.90
2023-01-29T07:18:46.214Z,-5.10
2023-01-29T07:21:12.947Z,-5.10
2023-01-29T07:23:39.684Z,-5.10
2023-01-29T07:26:06.511Z,-5.10
2023-01-29T07:28:36.916Z,-5.10
2023-01-29T07:31:03.900Z,-5.00
2023-01-29T07:33:30.881Z,-4.90
2023-01-29T07:35:57.743Z,-4.90
2023-01-29T07:38:24.625Z,-4.70
2023-01-29T07:40:54.612Z,-4.60
2023-01-29T07:43:21.426Z,-4.60
2023-01-29T07:45:48.230Z,-4.50
2023-01-29T07:48:15.085Z,-4.50
2023-01-29T07:50:42.156Z,-4.40
2023-01-29T07:53:16.317Z,-4.30
2023-01-29T07:55:45.382Z,-4.30
2023-01-29T07:58:12.199Z,-4.30
2023-01-29T08:00:39.000Z,-4.10
2023-01-29T08:03:11.608Z,-4.00
2023-01-29T08:05:38.384Z,-3.90
2023-01-29T08:08:07.314Z,-3.80
2023-01-29T08:10:37.883Z,-3.80
2023-01-29T08:13:04.787Z,-3.90
2023-01-29T08:15:32.043Z,-3.90
2023-01-29T08:17:58.811Z,-3.90
2023-01-29T08:20:25.767Z,-3.90
2023-01-29T08:23:02.425Z,-3.70
2023-01-29T08:25:29.689Z,-3.60
2023-01-29T08:27:57.507Z,-3.40
2023-01-29T08:30:34.201Z,-3.30
2023-01-29T08:33:01.211Z,-3.20
2023-01-29T08:35:28.006Z,-3.20
2023-01-29T08:37:59.495Z,-3.20
2023-01-29T08:40:27.225Z,-3.20
2023-01-29T08:43:02.496Z,-3.10
2023-01-29T08:45:30.779Z,-3.00
2023-01-29T08:47:57.601Z,-2.90
2023-01-29T08:50:24.526Z,-2.80
2023-01-29T08:52:51.434Z,-2.70
2023-01-29T08:55:18.627Z,-2.60
2023-01-29T08:57:45.542Z,-2.50
2023-01-29T09:00:12.839Z,-2.50
2023-01-29T09:02:39.659Z,-2.40
2023-01-29T09:05:07.068Z,-2.30
2023-01-29T09:07:33.857Z,-2.20
2023-01-29T09:10:01.120Z,-2.10
2023-01-29T09:12:27.972Z,-2.10
2023-01-29T09:14:54.793Z,-2.00
2023-01-29T09:17:21.731Z,-1.90
2023-01-29T09:19:48.524Z,-1.90
2023-01-29T09:22:15.271Z,-1.90
2023-01-29T09:24:41.955Z,-1.80
2023-01-29T09:27:10.009Z,-1.80
2023-01-29T09:29:36.847Z,-1.80
2023-01-29T09:32:07.209Z,-1.70
2023-01-29T09:34:34.411Z,-1.70
2023-01-29T09:37:01.197Z,-1.80
2023-01-29T09:39:27.940Z,-1.70
2023-01-29T09:42:14.825Z,-1.70
2023-01-29T09:45:05.075Z,-1.70
2023-01-29T09:47:33.558Z,-1.60
2023-01-29T09:50:07.089Z,-1.60
2023-01-29T09:52:43.322Z,-1.60
2023-01-29T09:55:24.565Z,-1.50
2023-01-29T09:58:04.024Z,-1.50
2023-01-29T10:00:48.508Z,-1.40
2023-01-29T10:03:32.208Z,-1.30
2023-01-29T10:05:58.967Z,-1.20
2023-01-29T10:09:03.491Z,-1.10
2023-01-29T10:11:39.476Z,-0.90
2023-01-29T10:14:44.914Z,-0.80
2023-01-29T10:17:39.364Z,-0.70
2023-01-29T10:20:27.961Z,-0.60
2023-01-29T10:23:21.911Z,-0.60
2023-01-29T10:25:48.699Z,-0.60
2023-01-29T10:28:19.388Z,-0.60
2023-01-29T10:30:48.926Z,-0.50
2023-01-29T10:33:19.242Z,-0.50
2023-01-29T10:35:53.769Z,-0.40
2023-01-29T10:38:24.366Z,-0.30
2023-01-29T10:41:03.245Z,-0.20
2023-01-29T10:43:42.463Z,-0.10
2023-01-29T10:46:34.753Z,0.00
2023-01-29T10:49:23.251Z,0.10
2023-01-29T10:52:20.878Z,0.20
2023-01-29T10:55:05.247Z,0.40
2023-01-29T10:57:40.850Z,0.50
2023-01-29T11:00:21.875Z,0.50
2023-01-29T11:02:50.192Z,0.60
2023-01-29T11:05:31.779Z,0.60
2023-01-29T11:08:05.171Z,0.70
2023-01-29T11:10:33.381Z,0.70
2023-01-29T11:13:00.123Z,0.70
2023-01-29T11:15:32.344Z,0.80
2023-01-29T11:18:15.779Z,0.80
2023-01-29T11:20:43.489Z,0.90
2023-01-29T11:23:42.548Z,0.90
2023-01-29T11:26:11.441Z,1.00
2023-01-29T11:28:42.527Z,1.00
2023-01-29T11:31:29.517Z,1.10
2023-01-29T11:34:21.577Z,1.20
2023-01-29T11:36:57.408Z,1.30
2023-01-29T11:39:24.702Z,1.30
2023-01-29T11:41:57.828Z,1.40
2023-01-29T11:44:31.338Z,1.40
2023-01-29T11:47:18.812Z,1.40
2023-01-29T11:49:49.775Z,1.50
2023-01-29T11:52:18.228Z,1.50
2023-01-29T11:54:49.211Z,1.60
2023-01-29T11:57:37.307Z,1.60
2023-01-29T12:00:27.872Z,1.70
2023-01-29T12:03:00.475Z,1.70
2023-01-29T12:05:27.410Z,1.80
2023-01-29T12:07:55.647Z,1.80
2023-01-29T12:10:36.217Z,1.80
2023-01-29T12:13:20.957Z,1.90
2023-01-29T12:15:48.249Z,1.90
2023-01-29T12:18:33.118Z,1.90
2023-01-29T12:21:04.770Z,1.90
2023-01-29T12:23:53.244Z,2.00
2023-01-29T12:26:27.750Z,2.00
2023-01-29T12:29:07.460Z,2.10
2023-01-29T12:31:48.969Z,2.10
2023-01-29T12:34:27.794Z,2.10
2023-01-29T12:37:23.048Z,2.10
2023-01-29T12:39:49.973Z,2.10
2023-01-29T12:42:23.340Z,2.10
2023-01-29T12:45:03.155Z,2.10
2023-01-29T12:47:44.256Z,2.20
2023-01-29T12:50:19.222Z,2.30
2023-01-29T12:52:54.189Z,2.30
2023-01-29T12:55:23.121Z,2.20
2023-01-29T12:57:59.255Z,2.30
2023-01-29T13:00:33.880Z,2.30
2023-01-29T13:03:21.500Z,2.30
2023-01-29T13:05:49.104Z,2.40
2023-01-29T13:08:30.898Z,2.40
2023-01-29T13:10:58.580Z,2.40
2023-01-29T13:13:30.652Z,2.50
2023-01-29T13:15:57.460Z,2.50
2023-01-29T13:18:33.386Z,2.50
2023-01-29T13:21:00.363Z,2.50
2023-01-29T13:23:43.493Z,2.60
2023-01-29T13:26:11.865Z,2.60
2023-01-29T13:28:39.699Z,2.60
2023-01-29T13:31:36.985Z,2.60
2023-01-29T13:34:20.165Z,2.60
2023-01-29T13:36:57.504Z,2.60
2023-01-29T13:39:55.056Z,2.60
2023-01-29T13:42:48.082Z,2.60
2023-01-29T13:45:25.428Z,2.60
2023-01-29T13:47:52.810Z,2.60
2023-01-29T13:50:29.723Z,2.60
2023-01-29T13:52:58.080Z,2.70
2023-01-29T13:55:31.225Z,2.70
2023-01-29T13:58:01.835Z,2.70
2023-01-29T14:00:34.160Z,2.70
2023-01-29T14:03:00.889Z,2.70
2023-01-29T14:05:30.294Z,2.80
2023-01-29T14:07:59.323Z,2.80
2023-01-29T14:10:33.347Z,2.90
2023-01-29T14:13:11.928Z,2.90
2023-01-29T14:15:40.156Z,2.90
2023-01-29T14:18:22.187Z,2.90
2023-01-29T14:20:49.027Z,2.90
2023-01-29T14:23:28.722Z,2.80
2023-01-29T14:25:55.732Z,2.80
2023-01-29T14:28:28.938Z,2.80
2023-01-29T14:30:55.954Z,2.80
2023-01-29T14:33:36.968Z,2.80
2023-01-29T14:36:12.681Z,2.80
2023-01-29T14:38:40.124Z,2.80
2023-01-29T14:41:26.514Z,2.80
2023-01-29T14:44:23.814Z,2.80
2023-01-29T14:46:50.591Z,2.80
2023-01-29T14:49:50.163Z,2.70
2023-01-29T14:52:17.844Z,2.70
2023-01-29T14:54:44.721Z,2.60
2023-01-29T14:57:12.722Z,2.60
2023-01-29T15:00:05.488Z,2.60
2023-01-29T15:02:40.460Z,2.50
2023-01-29T15:05:20.608Z,2.50
2023-01-29T15:07:48.677Z,2.50
2023-01-29T15:10:22.641Z,2.50
2023-01-29T15:12:54.514Z,2.40
2023-01-29T15:15:30.374Z,2.40
2023-01-29T15:18:07.155Z,2.40
2023-01-29T15:20:38.503Z,2.40
2023-01-29T15:23:22.502Z,2.30
2023-01-29T15:25:51.065Z,2.20
2023-01-29T15:28:17.904Z,2.10
2023-01-29T15:30:45.162Z,2.00
2023-01-29T15:33:13.248Z,1.90
2023-01-29T15:35:43.389Z,1.90
2023-01-29T15:38:15.324Z,1.80
2023-01-29T15:40:42.101Z,1.80
2023-01-29T15:43:35.659Z,1.80
2023-01-29T15:46:04.977Z,1.80
2023-01-29T15:48:40.615Z,1.90
2023-01-29T15:51:20.996Z,1.80
2023-01-29T15:53:56.913Z,1.70
2023-01-29T15:56:30.569Z,1.50
2023-01-29T15:58:58.286Z,1.30
2023-01-29T16:01:28.579Z,1.20
2023-01-29T16:03:55.809Z,1.20
2023-01-29T16:06:23.387Z,1.20
2023-01-29T16:08:52.103Z,1.30
2023-01-29T16:11:19.014Z,1.30
2023-01-29T16:13:47.313Z,1.30
2023-01-29T16:16:21.303Z,1.20
2023-01-29T16:18:59.465Z,1.00
2023-01-29T16:21:37.588Z,0.80
2023-01-29T16:24:13.441Z,0.40
2023-01-29T16:26:43.626Z,0.30
2023-01-29T16:29:12.398Z,0.20
2023-01-29T16:31:39.290Z,0.00
2023-01-29T16:34:07.538Z,0.00
2023-01-29T16:36:34.294Z,0.00
2023-01-29T16:39:02.340Z,0.00
2023-01-29T16:41:38.703Z,-0.10
2023-01-29T16:44:20.398Z,-0.20
2023-01-29T16:46:48.215Z,-0.30
2023-01-29T16:49:27.036Z,-0.30
2023-01-29T16:51:54.632Z,-0.40
2023-01-29T16:54:23.955Z,-0.40
2023-01-29T16:56:55.964Z,-0.30
2023-01-29T16:59:43.176Z,-0.30
2023-01-29T17:02:26.251Z,-0.30
2023-01-29T17:04:53.837Z,-0.30
2023-01-29T17:07:22.395Z,-0.40
2023-01-29T17:09:53.679Z,-0.40
2023-01-29T17:12:21.994Z,-0.30
2023-01-29T17:14:56.812Z,-0.30
2023-01-29T17:17:28.968Z,-0.30
2023-01-29T17:19:55.744Z,-0.30
2023-01-29T17:22:22.490Z,-0.50
2023-01-29T17:24:51.493Z,-0.60
2023-01-29T17:27:22.077Z,-0.70
2023-01-29T17:29:48.902Z,-0.70
2023-01-29T17:32:18.911Z,-0.60
2023-01-29T17:34:46.937Z,-0.50
2023-01-29T17:37:15.135Z,-0.40
2023-01-29T17:39:42.970Z,-0.40
2023-01-29T17:42:13.999Z,-0.40
2023-01-29T17:44:42.658Z,-0.50
2023-01-29T17:47:14.195Z,-0.50
2023-01-29T17:49:41.545Z,-0.60
2023-01-29T17:52:08.647Z,-0.60
2023-01-29T17:54:35.519Z,-0.70
2023-01-29T17:57:02.315Z,-0.90
2023-01-29T17:59:30.839Z,-0.90
2023-01-29T18:01:57.655Z,-1.00
2023-01-29T18:04:24.514Z,-1.10
2023-01-29T18:06:51.725Z,-1.10
2023-01-29T18:09:22.549Z,-1.20
2023-01-29T18:11:49.778Z,-1.30
2023-01-29T18:14:16.838Z,-1.30
2023-01-29T18:16:44.199Z,-1.40
2023-01-29T18:19:23.479Z,-1.50
2023-01-29T18:21:50.469Z,-1.60
2023-01-29T18:24:17.277Z,-1.70
2023-01-29T18:26:44.122Z,-1.70
2023-01-29T18:29:10.870Z,-1.60
2023-01-29T18:31:37.726Z,-1.60
2023-01-29T18:34:04.557Z,-1.60
2023-01-29T18:36:31.330Z,-1.70
2023-01-29T18:38:58.228Z,-1.70
2023-01-29T18:41:25.005Z,-1.70
2023-01-29T18:43:52.800Z,-1.70
2023-01-29T18:46:19.843Z,-1.80
2023-01-29T18:48:46.627Z,-1.80
2023-01-29T18:51:13.392Z,-1.80
2023-01-29T18:53:40.129Z,-1.70
2023-01-29T18:56:07.307Z,-1.80
2023-01-29T18:58:36.049Z,-1.70
2023-01-29T19:01:09.969Z,-1.60
2023-01-29T19:03:37.577Z,-1.60
2023-01-29T19:06:05.386Z,-1.60
2023-01-29T19:08:32.778Z,-1.60
2023-01-29T19:11:02.333Z,-1.60
2023-01-29T19:13:30.205Z,-1.60
2023-01-29T19:15:57.094Z,-1.50
2023-01-29T19:18:26.066Z,-1.70
2023-01-29T19:20:53.445Z,-1.90
2023-01-29T19:23:20.781Z,-2.10
2023-01-29T19:25:47.651Z,-2.30
2023-01-29T19:28:15.312Z,-2.40
2023-01-29T19:30:42.184Z,-2.50
2023-01-29T19:33:09.655Z,-2.50
2023-01-29T19:35:36.408Z,-2.60
2023-01-29T19:38:04.134Z,-2.70
2023-01-29T19:40:31.199Z,-2.80
2023-01-29T19:42:58.690Z,-2.90
2023-01-29T19:45:49.735Z,-2.90
2023-01-29T19:48:14.585Z,-3.00
2023-01-29T19:50:41.826Z,-3.00
2023-01-29T19:53:08.511Z,-3.10
2023-01-29T19:55:35.195Z,-3.10
2023-01-29T19:58:03.506Z,-3.10
2023-01-29T20:00:30.325Z,-3.20
2023-01-29T20:02:57.160Z,-3.20
2023-01-29T20:05:26.985Z,-3.30
2023-01-29T20:07:53.816Z,-3.30
2023-01-29T20:10:20.832Z,-3.20
2023-01-29T20:12:47.733Z,-3.20
2023-01-29T20:15:14.651Z,-3.10
2023-01-29T20:17:41.486Z,-3.10
2023-01-29T20:20:09.063Z,-3.10
2023-01-29T20:22:35.956Z,-3.10
2023-01-29T20:25:02.690Z,-3.30
2023-01-29T20:27:29.459Z,-3.50
2023-01-29T20:29:56.305Z,-3.60
2023-01-29T20:32:23.187Z,-3.80
2023-01-29T20:34:52.217Z,-4.00
2023-01-29T20:37:19.655Z,-4.10
2023-01-29T20:39:46.634Z,-4.10
2023-01-29T20:42:13.445Z,-4.20
2023-01-29T20:44:40.277Z,-4.20
2023-01-29T20:47:06.970Z,-4.30
2023-01-29T20:49:33.748Z,-4.40
2023-01-29T20:52:00.545Z,-4.40
2023-01-29T20:54:29.405Z,-4.50
2023-01-29T20:56:56.244Z,-4.50
2023-01-29T20:59:23.312Z,-4.60
2023-01-29T21:01:50.172Z,-4.60
2023-01-29T21:04:17.062Z,-4.70
2023-01-29T21:06:43.831Z,-5.00
2023-01-29T21:09:10.544Z,-5.20
2023-01-29T21:11:37.255Z,-5.20
2023-01-29T21:14:04.083Z,-5.20
2023-01-29T21:16:31.279Z,-5.30
2023-01-29T21:18:58.477Z,-5.40
2023-01-29T21:21:26.669Z,-5.50
2023-01-29T21:23:53.620Z,-5.50
2023-01-29T21:26:20.524Z,-5.40
2023-01-29T21:28:47.303Z,-5.40
2023-01-29T21:31:14.601Z,-5.40
2023-01-29T21:33:41.377Z,-5.40
2023-01-29T21:36:10.014Z,-5.40
2023-01-29T21:38:36.801Z,-5.30
2023-01-29T21:41:04.620Z,-5.30
2023-01-29T21:43:31.350Z,-5.20
2023-01-29T21:45:59.089Z,-5.10
2023-01-29T21:48:26.047Z,-5.10
2023-01-29T21:50:53.027Z,-5.00
2023-01-29T21:53:19.821Z,-5.00
2023-01-29T21:55:46.695Z,-5.00
2023-01-29T21:58:14.516Z,-4.90
2023-01-29T22:00:41.506Z,-5.00
2023-01-29T22:03:08.370Z,-5.10
2023-01-29T22:05:35.285Z,-5.30
2023-01-29T22:08:02.572Z,-5.50
2023-01-29T22:10:30.672Z,-5.70
2023-01-29T22:12:58.693Z,-5.80
2023-01-29T22:15:25.433Z,-5.80
2023-01-29T22:17:52.288Z,-5.70
2023-01-29T22:20:19.508Z,-5.70
2023-01-29T22:22:46.461Z,-5.70
2023-01-29T22:25:13.221Z,-5.70
2023-01-29T22:27:40.045Z,-5.70
2023-01-29T22:30:07.512Z,-5.80
2023-01-29T22:32:34.342Z,-5.90
2023-01-29T22:35:01.087Z,-6.00
2023-01-29T22:37:27.836Z,-6.20
2023-01-29T22:39:54.645Z,-6.30
2023-01-29T22:42:21.406Z,-6.40
2023-01-29T22:44:48.526Z,-6.40
2023-01-29T22:47:15.650Z,-6.40
2023-01-29T22:49:44.576Z,-6.30
2023-01-29T22:52:11.621Z,-6.40
2023-01-29T22:54:39.524Z,-6.40
2023-01-29T22:57:06.487Z,-6.50
2023-01-29T22:59:33.409Z,-6.60
2023-01-29T23:02:00.263Z,-6.70
2023-01-29T23:04:27.194Z,-6.60
2023-01-29T23:06:54.047Z,-6.60
2023-01-29T23:09:20.860Z,-6.50
2023-01-29T23:11:47.546Z,-6.40
2023-01-29T23:14:14.281Z,-6.40
2023-01-29T23:16:41.169Z,-6.40
2023-01-29T23:19:07.981Z,-6.50
2023-01-29T23:21:34.672Z,-6.50
2023-01-29T23:24:01.544Z,-6.70
2023-01-29T23:26:47.219Z,-6.70
2023-01-29T23:29:14.366Z,-6.70
2023-01-29T23:31:41.225Z,-6.90
2023-01-29T23:34:08.031Z,-7.00
2023-01-29T23:36:34.804Z,-7.10
2023-01-29T23:39:01.561Z,-7.10
2023-01-29T23:41:28.310Z,-7.10
2023-01-29T23:43:55.074Z,-7.00
2023-01-29T23:46:21.844Z,-7.00
2023-01-29T23:48:48.613Z,-7.00
2023-01-29T23:51:15.397Z,-7.00
2023-01-29T23:53:42.138Z,-7.00
2023-01-29T23:56:10.411Z,-7.00
2023-01-29T23:58:37.190Z,-7.10
